createdAt,value
2022-10-19T00:02:45.149Z,19.92
2022-10-19T00:07:48.686Z,19.91
2022-10-19T00:12:52.323Z,19.90
2022-10-19T00:17:56.368Z,19.91
2022-10-19T00:23:00.310Z,19.92
2022-10-19T00:28:04.563Z,19.92
2022-10-19T00:33:08.181Z,19.92
2022-10-19T00:38:15.944Z,19.92
2022-10-19T00:43:26.381Z,19.91
2022-10-19T00:48:34.478Z,19.92
2022-10-19T00:53:38.274Z,19.92
2022-10-19T00:58:43.217Z,19.89
2022-10-19T01:03:50.358Z,19.87
2022-10-19T01:08:57.856Z,19.87
2022-10-19T01:14:14.006Z,19.85
2022-10-19T01:19:18.688Z,19.80
2022-10-19T01:25:05.900Z,19.75
2022-10-19T01:30:29.011Z,19.69
2022-10-19T01:35:40.794Z,19.64
2022-10-19T01:41:10.434Z,19.60
2022-10-19T01:46:25.854Z,19.58
2022-10-19T01:51:35.172Z,19.55
2022-10-19T01:56:43.212Z,19.55
2022-10-19T02:01:50.535Z,19.56
2022-10-19T02:06:56.776Z,19.56
2022-10-19T02:12:10.314Z,19.56
2022-10-19T02:17:18.627Z,19.56
2022-10-19T02:22:23.898Z,19.56
2022-10-19T02:27:29.256Z,19.57
2022-10-19T02:32:34.422Z,19.57
2022-10-19T02:37:39.479Z,19.60
2022-10-19T02:42:54.021Z,19.60
2022-10-19T02:48:07.127Z,19.58
2022-10-19T02:53:11.886Z,19.56
2022-10-19T02:58:16.695Z,19.59
2022-10-19T03:03:21.392Z,19.57
2022-10-19T03:08:26.179Z,19.59
2022-10-19T03:13:30.884Z,19.59
2022-10-19T03:18:35.735Z,19.59
2022-10-19T03:23:41.253Z,19.59
2022-10-19T03:28:46.019Z,19.59
2022-10-19T03:33:50.629Z,19.60
2022-10-19T03:38:57.793Z,19.58
2022-10-19T03:44:04.985Z,19.60
2022-10-19T03:49:17.153Z,19.61
2022-10-19T03:54:27.418Z,19.62
2022-10-19T03:59:34.848Z,19.68
2022-10-19T04:04:39.600Z,19.74
2022-10-19T04:09:44.355Z,19.79
2022-10-19T04:14:57.571Z,19.82
2022-10-19T04:20:02.401Z,19.85
2022-10-19T04:25:08.780Z,19.89
2022-10-19T04:30:16.751Z,19.90
2022-10-19T04:35:21.648Z,19.97
2022-10-19T04:40:27.495Z,20.01
2022-10-19T04:45:32.792Z,20.10
2022-10-19T04:50:40.758Z,20.16
2022-10-19T04:55:46.528Z,20.23
2022-10-19T05:00:51.335Z,20.28
2022-10-19T05:05:59.863Z,20.40
2022-10-19T05:11:13.509Z,20.57
2022-10-19T05:16:25.862Z,20.93
2022-10-19T05:21:31.098Z,21.38
2022-10-19T05:26:39.086Z,21.72
2022-10-19T05:31:43.934Z,21.89
2022-10-19T05:36:51.945Z,21.96
2022-10-19T05:41:56.699Z,22.03
2022-10-19T05:47:01.408Z,22.14
2022-10-19T05:52:09.341Z,22.23
2022-10-19T05:57:16.889Z,22.41
2022-10-19T06:02:21.706Z,22.66
2022-10-19T06:07:26.474Z,22.82
2022-10-19T06:12:41.339Z,22.83
2022-10-19T06:17:49.181Z,22.81
2022-10-19T06:22:56.436Z,22.79
2022-10-19T06:28:04.635Z,22.79
2022-10-19T06:33:15.114Z,22.84
2022-10-19T06:38:24.423Z,22.92
2022-10-19T06:43:32.167Z,22.99
2022-10-19T06:48:44.490Z,23.27
2022-10-19T06:53:56.514Z,23.71
2022-10-19T06:59:05.195Z,24.13
2022-10-19T07:04:15.113Z,24.53
2022-10-19T07:09:23.003Z,24.53
2022-10-19T07:14:30.263Z,24.26
2022-10-19T07:19:35.419Z,24.09
2022-10-19T07:24:40.047Z,23.93
2022-10-19T07:29:45.257Z,23.85
2022-10-19T07:34:50.220Z,23.82
2022-10-19T07:39:54.882Z,23.78
2022-10-19T07:45:00.170Z,23.78
2022-10-19T07:50:09.025Z,23.83
2022-10-19T07:55:17.382Z,23.88
2022-10-19T08:00:22.201Z,23.98
2022-10-19T08:05:27.589Z,24.11
2022-10-19T08:10:32.979Z,24.16
2022-10-19T08:15:41.202Z,24.29
2022-10-19T08:20:46.106Z,24.36
2022-10-19T08:25:54.316Z,24.58
2022-10-19T08:31:06.470Z,24.68
2022-10-19T08:36:13.238Z,24.59
2022-10-19T08:41:27.145Z,24.50
2022-10-19T08:46:59.066Z,24.60
2022-10-19T08:52:20.189Z,24.68
2022-10-19T08:58:24.480Z,24.59
2022-10-19T09:03:54.905Z,24.54
2022-10-19T09:09:06.361Z,24.57
2022-10-19T09:14:24.064Z,24.65
2022-10-19T09:19:30.306Z,24.66
2022-10-19T09:24:46.806Z,24.64
2022-10-19T09:30:05.346Z,24.62
2022-10-19T09:35:33.798Z,24.62
2022-10-19T09:40:38.539Z,24.63
2022-10-19T09:46:20.048Z,24.67
2022-10-19T09:51:25.379Z,24.72
2022-10-19T09:56:30.095Z,24.72
2022-10-19T10:01:43.800Z,24.64
2022-10-19T10:06:50.235Z,24.57
2022-10-19T10:12:00.358Z,24.51
2022-10-19T10:17:10.821Z,24.53
2022-10-19T10:22:37.562Z,24.55
2022-10-19T10:27:59.282Z,24.59
2022-10-19T10:33:13.410Z,24.61
2022-10-19T10:38:31.068Z,24.68
2022-10-19T10:43:43.270Z,24.69
2022-10-19T10:49:00.047Z,24.71
2022-10-19T10:54:24.457Z,24.70
2022-10-19T10:59:39.309Z,24.63
2022-10-19T11:04:53.680Z,24.62
2022-10-19T11:10:15.808Z,24.54
2022-10-19T11:20:43.129Z,24.55
2022-10-19T11:26:15.039Z,24.59
2022-10-19T11:31:34.875Z,24.64
2022-10-19T11:37:08.496Z,24.60
2022-10-19T11:42:32.047Z,24.61
2022-10-19T11:47:45.256Z,24.61
2022-10-19T11:53:16.264Z,24.57
2022-10-19T11:58:50.517Z,24.52
2022-10-19T12:04:11.469Z,24.46
2022-10-19T12:09:36.595Z,24.42
2022-10-19T12:14:51.312Z,24.43
2022-10-19T12:20:00.915Z,24.47
2022-10-19T12:25:06.844Z,24.43
2022-10-19T12:30:22.775Z,24.40
2022-10-19T12:35:46.822Z,24.29
2022-10-19T12:41:01.836Z,24.19
2022-10-19T12:46:26.278Z,24.16
2022-10-19T12:51:29.861Z,24.17
2022-10-19T12:56:49.060Z,24.15
2022-10-19T13:01:54.581Z,24.08
2022-10-19T13:06:58.302Z,23.93
2022-10-19T13:12:16.457Z,23.77
2022-10-19T13:17:35.642Z,23.65
2022-10-19T13:22:39.528Z,23.61
2022-10-19T13:27:44.432Z,23.58
2022-10-19T13:32:47.948Z,23.58
2022-10-19T13:38:09.609Z,23.65
2022-10-19T13:43:25.832Z,23.67
2022-10-19T13:48:58.851Z,23.67
2022-10-19T13:54:29.822Z,23.64
2022-10-19T13:59:48.577Z,23.59
2022-10-19T14:05:20.240Z,23.55
2022-10-19T14:10:32.850Z,23.46
2022-10-19T14:15:36.844Z,23.38
2022-10-19T14:20:40.192Z,23.32
2022-10-19T14:25:55.405Z,23.25
2022-10-19T14:31:23.047Z,23.19
2022-10-19T14:36:32.306Z,23.15
2022-10-19T14:41:37.375Z,23.04
2022-10-19T14:46:47.434Z,22.90
2022-10-19T14:52:03.392Z,22.79
2022-10-19T14:57:13.745Z,22.67
2022-10-19T15:02:35.220Z,22.58
2022-10-19T15:07:41.004Z,22.47
2022-10-19T15:12:45.568Z,22.39
2022-10-19T15:17:54.824Z,22.31
2022-10-19T15:22:59.054Z,22.25
2022-10-19T15:28:41.864Z,22.22
2022-10-19T15:33:51.751Z,22.18
2022-10-19T15:39:06.241Z,22.15
2022-10-19T15:44:33.865Z,22.08
2022-10-19T15:49:43.049Z,22.06
2022-10-19T15:54:54.768Z,22.03
2022-10-19T16:00:01.411Z,21.99
2022-10-19T16:05:07.978Z,21.95
2022-10-19T16:10:17.380Z,21.92
2022-10-19T16:15:23.286Z,21.89
2022-10-19T16:20:29.444Z,21.84
2022-10-19T16:25:34.107Z,21.79
2022-10-19T16:30:37.716Z,21.74
2022-10-19T16:35:41.019Z,21.72
2022-10-19T16:40:45.121Z,21.66
2022-10-19T16:45:48.443Z,21.62
2022-10-19T16:51:11.998Z,21.61
2022-10-19T16:56:15.103Z,21.62
2022-10-19T17:01:19.483Z,21.61
2022-10-19T17:06:23.539Z,21.64
2022-10-19T17:11:35.516Z,21.70
2022-10-19T17:16:39.814Z,21.67
2022-10-19T17:21:43.175Z,21.66
2022-10-19T17:26:46.459Z,21.63
2022-10-19T17:31:50.590Z,21.61
2022-10-19T17:36:54.032Z,21.58
2022-10-19T17:41:59.292Z,21.53
2022-10-19T17:47:02.515Z,21.48
2022-10-19T17:52:05.904Z,21.43
2022-10-19T17:57:09.093Z,21.42
2022-10-19T18:02:12.574Z,21.39
2022-10-19T18:07:18.061Z,21.43
2022-10-19T18:12:25.226Z,21.53
2022-10-19T18:17:28.535Z,21.53
2022-10-19T18:22:33.016Z,21.56
2022-10-19T18:27:37.141Z,21.62
2022-10-19T18:32:43.254Z,21.71
2022-10-19T18:37:47.168Z,21.70
2022-10-19T18:42:51.624Z,21.64
2022-10-19T18:47:56.389Z,21.55
2022-10-19T18:53:00.718Z,21.50
2022-10-19T18:58:04.966Z,21.47
2022-10-19T19:03:09.526Z,21.40
2022-10-19T19:08:13.617Z,21.41
2022-10-19T19:13:17.237Z,21.41
2022-10-19T19:18:20.832Z,21.37
2022-10-19T19:23:24.823Z,21.35
2022-10-19T19:28:28.512Z,21.30
2022-10-19T19:33:32.769Z,21.25
2022-10-19T19:38:37.484Z,21.22
2022-10-19T19:43:42.607Z,21.17
2022-10-19T19:48:48.305Z,21.16
2022-10-19T19:53:52.279Z,21.16
2022-10-19T19:58:59.411Z,21.14
2022-10-19T20:09:13.617Z,21.09
2022-10-19T20:14:16.868Z,21.06
2022-10-19T20:19:20.669Z,21.04
2022-10-19T20:24:24.564Z,20.97
2022-10-19T20:29:28.853Z,20.96
2022-10-19T20:34:36.359Z,20.97
2022-10-19T20:39:40.441Z,20.98
2022-10-19T20:44:44.551Z,20.99
2022-10-19T20:49:48.527Z,21.01
2022-10-19T20:54:52.301Z,21.03
2022-10-19T20:59:58.190Z,21.04
2022-10-19T21:05:07.076Z,21.04
2022-10-19T21:10:10.489Z,21.02
2022-10-19T21:15:15.472Z,20.99
2022-10-19T21:20:18.754Z,20.95
2022-10-19T21:25:22.142Z,20.95
2022-10-19T21:30:25.626Z,20.93
2022-10-19T21:35:28.956Z,20.90
2022-10-19T21:40:35.655Z,20.88
2022-10-19T21:45:38.795Z,20.84
2022-10-19T21:50:42.062Z,20.83
2022-10-19T21:55:45.818Z,20.80
2022-10-19T22:00:51.824Z,20.78
2022-10-19T22:06:04.183Z,20.76
2022-10-19T22:11:09.733Z,20.72
2022-10-19T22:16:16.852Z,20.66
2022-10-19T22:21:26.592Z,20.62
2022-10-19T22:26:33.306Z,20.59
2022-10-19T22:31:37.343Z,20.56
2022-10-19T22:36:41.004Z,20.57
2022-10-19T22:41:44.669Z,20.56
2022-10-19T22:46:48.026Z,20.56
2022-10-19T22:51:51.428Z,20.55
2022-10-19T22:56:55.008Z,20.54
2022-10-19T23:01:58.378Z,20.54
2022-10-19T23:07:01.796Z,20.51
2022-10-19T23:12:05.590Z,20.55
2022-10-19T23:17:09.164Z,20.57
2022-10-19T23:22:12.848Z,20.60
2022-10-19T23:27:16.298Z,20.59
2022-10-19T23:32:19.678Z,20.58
2022-10-19T23:37:24.868Z,20.55
2022-10-19T23:42:28.555Z,20.56
2022-10-19T23:47:31.756Z,20.56
2022-10-19T23:52:35.290Z,20.56
2022-10-19T23:57:38.981Z,20.54
